sensor_id;sensor_type;location;lat;lon;timestamp;temperature;humidity
14277;DHT22;7222;57.346;12.150;2023-06-05T00:01:50;9.10;1.00
14277;DHT22;7222;57.346;12.150;2023-06-05T00:04:19;9.00;1.00
14277;DHT22;7222;57.346;12.150;2023-06-05T00:06:46;8.90;1.00
14277;DHT22;7222;57.346;12.150;2023-06-05T00:09:13;8.90;1.00
14277;DHT22;7222;57.346;12.150;2023-06-05T00:11:40;8.80;1.00
14277;DHT22;7222;57.346;12.150;2023-06-05T00:14:07;8.80;1.00
14277;DHT22;7222;57.346;12.150;2023-06-05T00:16:34;8.80;1.00
14277;DHT22;7222;57.346;12.150;2023-06-05T00:19:01;8.70;1.00
14277;DHT22;7222;57.346;12.150;2023-06-05T00:21:30;8.60;1.00
14277;DHT22;7222;57.346;12.150;2023-06-05T00:23:57;8.60;1.00
14277;DHT22;7222;57.346;12.150;2023-06-05T00:26:24;8.50;1.00
14277;DHT22;7222;57.346;12.150;2023-06-05T00:28:51;8.50;1.00
14277;DHT22;7222;57.346;12.150;2023-06-05T00:31:19;8.50;1.00
14277;DHT22;7222;57.346;12.150;2023-06-05T00:33:47;8.40;1.00
14277;DHT22;7222;57.346;12.150;2023-06-05T00:36:14;8.40;1.00
14277;DHT22;7222;57.346;12.150;2023-06-05T00:38:42;8.30;1.00
14277;DHT22;7222;57.346;12.150;2023-06-05T00:41:09;8.30;1.00
14277;DHT22;7222;57.346;12.150;2023-06-05T00:43:36;8.20;1.00
14277;DHT22;7222;57.346;12.150;2023-06-05T00:46:03;8.20;1.00
14277;DHT22;7222;57.346;12.150;2023-06-05T00:48:31;8.10;1.00
14277;DHT22;7222;57.346;12.150;2023-06-05T00:50:59;8.10;1.00
14277;DHT22;7222;57.346;12.150;2023-06-05T00:53:27;8.00;1.00
14277;DHT22;7222;57.346;12.150;2023-06-05T00:55:57;8.00;1.00
14277;DHT22;7222;57.346;12.150;2023-06-05T00:58:25;8.00;1.00
14277;DHT22;7222;57.346;12.150;2023-06-05T01:00:53;8.00;1.00
14277;DHT22;7222;57.346;12.150;2023-06-05T01:03:21;7.90;1.00
14277;DHT22;7222;57.346;12.150;2023-06-05T01:05:48;7.90;1.00
14277;DHT22;7222;57.346;12.150;2023-06-05T01:08:15;7.80;3.70
14277;DHT22;7222;57.346;12.150;2023-06-05T01:10:46;7.80;34.00
14277;DHT22;7222;57.346;12.150;2023-06-05T01:13:21;7.80;52.80
14277;DHT22;7222;57.346;12.150;2023-06-05T01:15:51;7.70;98.40
14277;DHT22;7222;57.346;12.150;2023-06-05T01:18:18;7.70;99.90
14277;DHT22;7222;57.346;12.150;2023-06-05T01:20:45;7.60;99.90
14277;DHT22;7222;57.346;12.150;2023-06-05T01:23:13;7.60;99.90
14277;DHT22;7222;57.346;12.150;2023-06-05T01:25:40;7.60;99.90
14277;DHT22;7222;57.346;12.150;2023-06-05T01:28:13;7.50;99.90
14277;DHT22;7222;57.346;12.150;2023-06-05T01:30:46;7.50;99.90
14277;DHT22;7222;57.346;12.150;2023-06-05T01:33:23;7.40;99.90
14277;DHT22;7222;57.346;12.150;2023-06-05T01:35:53;7.40;99.90
14277;DHT22;7222;57.346;12.150;2023-06-05T01:38:22;7.30;99.90
14277;DHT22;7222;57.346;12.150;2023-06-05T01:40:50;7.30;99.90
14277;DHT22;7222;57.346;12.150;2023-06-05T01:43:18;7.30;99.90
14277;DHT22;7222;57.346;12.150;2023-06-05T01:45:45;7.30;99.90
14277;DHT22;7222;57.346;12.150;2023-06-05T01:48:14;7.20;99.90
14277;DHT22;7222;57.346;12.150;2023-06-05T01:50:41;7.20;99.90
14277;DHT22;7222;57.346;12.150;2023-06-05T01:53:08;7.10;99.90
14277;DHT22;7222;57.346;12.150;2023-06-05T01:55:38;7.10;99.90
14277;DHT22;7222;57.346;12.150;2023-06-05T01:58:06;7.10;1.00
14277;DHT22;7222;57.346;12.150;2023-06-05T02:00:34;7.10;1.00
14277;DHT22;7222;57.346;12.150;2023-06-05T02:03:03;7.00;1.00
14277;DHT22;7222;57.346;12.150;2023-06-05T02:05:30;7.00;1.00
14277;DHT22;7222;57.346;12.150;2023-06-05T02:07:58;6.90;1.00
14277;DHT22;7222;57.346;12.150;2023-06-05T02:10:31;6.90;1.00
14277;DHT22;7222;57.346;12.150;2023-06-05T02:12:59;6.90;1.00
14277;DHT22;7222;57.346;12.150;2023-06-05T02:15:26;6.80;1.00
14277;DHT22;7222;57.346;12.150;2023-06-05T02:17:57;6.80;1.00
14277;DHT22;7222;57.346;12.150;2023-06-05T02:20:25;6.70;1.00
14277;DHT22;7222;57.346;12.150;2023-06-05T02:22:52;6.70;1.00
14277;DHT22;7222;57.346;12.150;2023-06-05T02:25:20;6.70;1.00
14277;DHT22;7222;57.346;12.150;2023-06-05T02:27:51;6.60;1.00
14277;DHT22;7222;57.346;12.150;2023-06-05T02:30:19;6.60;1.00
14277;DHT22;7222;57.346;12.150;2023-06-05T02:32:46;6.60;1.00
14277;DHT22;7222;57.346;12.150;2023-06-05T02:35:14;6.60;1.00
14277;DHT22;7222;57.346;12.150;2023-06-05T02:37:41;6.60;1.00
14277;DHT22;7222;57.346;12.150;2023-06-05T02:40:09;6.60;14.60
14277;DHT22;7222;57.346;12.150;2023-06-05T02:42:38;6.50;1.00
14277;DHT22;7222;57.346;12.150;2023-06-05T02:45:07;6.50;1.00
14277;DHT22;7222;57.346;12.150;2023-06-05T02:47:36;6.50;1.00
14277;DHT22;7222;57.346;12.150;2023-06-05T02:50:04;6.50;1.00
14277;DHT22;7222;57.346;12.150;2023-06-05T02:52:31;6.50;1.00
14277;DHT22;7222;57.346;12.150;2023-06-05T02:55:00;6.50;1.00
14277;DHT22;7222;57.346;12.150;2023-06-05T02:57:30;6.40;1.00
14277;DHT22;7222;57.346;12.150;2023-06-05T02:59:59;6.40;1.00
14277;DHT22;7222;57.346;12.150;2023-06-05T03:02:27;6.40;1.00
14277;DHT22;7222;57.346;12.150;2023-06-05T03:04:56;6.40;1.00
14277;DHT22;7222;57.346;12.150;2023-06-05T03:07:23;6.40;1.00
14277;DHT22;7222;57.346;12.150;2023-06-05T03:09:50;6.30;1.00
14277;DHT22;7222;57.346;12.150;2023-06-05T03:12:16;6.30;1.00
14277;DHT22;7222;57.346;12.150;2023-06-05T03:14:44;6.30;1.00
14277;DHT22;7222;57.346;12.150;2023-06-05T03:17:10;6.30;1.00
14277;DHT22;7222;57.346;12.150;2023-06-05T03:19:37;6.30;1.00
14277;DHT22;7222;57.346;12.150;2023-06-05T03:22:06;6.30;1.00
14277;DHT22;7222;57.346;12.150;2023-06-05T03:24:32;6.30;1.00
14277;DHT22;7222;57.346;12.150;2023-06-05T03:27:03;6.30;1.00
14277;DHT22;7222;57.346;12.150;2023-06-05T03:29:31;6.30;1.00
14277;DHT22;7222;57.346;12.150;2023-06-05T03:31:58;6.30;1.00
14277;DHT22;7222;57.346;12.150;2023-06-05T03:34:25;6.30;1.00
14277;DHT22;7222;57.346;12.150;2023-06-05T03:36:52;6.30;23.40
14277;DHT22;7222;57.346;12.150;2023-06-05T03:39:20;6.30;1.00
14277;DHT22;7222;57.346;12.150;2023-06-05T03:41:47;6.30;1.00
14277;DHT22;7222;57.346;12.150;2023-06-05T03:44:13;6.40;1.00
14277;DHT22;7222;57.346;12.150;2023-06-05T03:46:41;6.30;1.00
14277;DHT22;7222;57.346;12.150;2023-06-05T03:49:07;6.50;99.90
14277;DHT22;7222;57.346;12.150;2023-06-05T03:51:35;6.70;99.90
14277;DHT22;7222;57.346;12.150;2023-06-05T03:54:02;6.80;99.90
14277;DHT22;7222;57.346;12.150;2023-06-05T03:56:32;6.80;11.70
14277;DHT22;7222;57.346;12.150;2023-06-05T03:59:00;6.90;99.90
14277;DHT22;7222;57.346;12.150;2023-06-05T04:01:34;7.00;99.90
14277;DHT22;7222;57.346;12.150;2023-06-05T04:04:03;7.10;95.20
14277;DHT22;7222;57.346;12.150;2023-06-05T04:06:30;7.30;99.90
14277;DHT22;7222;57.346;12.150;2023-06-05T04:08:58;7.30;1.00
14277;DHT22;7222;57.346;12.150;2023-06-05T04:11:25;7.40;99.90
14277;DHT22;7222;57.346;12.150;2023-06-05T04:13:54;7.60;99.90
14277;DHT22;7222;57.346;12.150;2023-06-05T04:16:21;7.60;99.90
14277;DHT22;7222;57.346;12.150;2023-06-05T04:18:48;7.50;99.90
14277;DHT22;7222;57.346;12.150;2023-06-05T04:21:15;7.60;99.90
14277;DHT22;7222;57.346;12.150;2023-06-05T04:23:42;8.00;99.90
14277;DHT22;7222;57.346;12.150;2023-06-05T04:26:09;8.10;99.90
14277;DHT22;7222;57.346;12.150;2023-06-05T04:28:37;8.20;99.90
14277;DHT22;7222;57.346;12.150;2023-06-05T04:31:05;7.80;99.90
14277;DHT22;7222;57.346;12.150;2023-06-05T04:33:32;7.90;99.90
14277;DHT22;7222;57.346;12.150;2023-06-05T04:35:59;8.40;99.90
14277;DHT22;7222;57.346;12.150;2023-06-05T04:38:26;8.90;99.90
14277;DHT22;7222;57.346;12.150;2023-06-05T04:40:53;9.30;99.90
14277;DHT22;7222;57.346;12.150;2023-06-05T04:43:20;9.40;99.90
14277;DHT22;7222;57.346;12.150;2023-06-05T04:45:48;9.40;99.90
14277;DHT22;7222;57.346;12.150;2023-06-05T04:48:16;9.50;99.90
14277;DHT22;7222;57.346;12.150;2023-06-05T04:50:43;9.70;99.90
14277;DHT22;7222;57.346;12.150;2023-06-05T04:53:10;9.90;99.90
14277;DHT22;7222;57.346;12.150;2023-06-05T04:55:38;10.10;99.90
14277;DHT22;7222;57.346;12.150;2023-06-05T04:58:04;10.40;99.90
14277;DHT22;7222;57.346;12.150;2023-06-05T05:00:32;10.40;99.90
14277;DHT22;7222;57.346;12.150;2023-06-05T05:02:59;10.70;99.90
14277;DHT22;7222;57.346;12.150;2023-06-05T05:05:29;10.90;99.90
14277;DHT22;7222;57.346;12.150;2023-06-05T05:07:56;10.90;99.90
14277;DHT22;7222;57.346;12.150;2023-06-05T05:10:23;10.90;99.90
14277;DHT22;7222;57.346;12.150;2023-06-05T05:12:50;11.10;99.90
14277;DHT22;7222;57.346;12.150;2023-06-05T05:15:17;11.30;99.90
14277;DHT22;7222;57.346;12.150;2023-06-05T05:17:45;11.40;99.90
14277;DHT22;7222;57.346;12.150;2023-06-05T05:20:12;11.50;99.90
14277;DHT22;7222;57.346;12.150;2023-06-05T05:22:41;11.70;99.90
14277;DHT22;7222;57.346;12.150;2023-06-05T05:25:08;11.90;99.90
14277;DHT22;7222;57.346;12.150;2023-06-05T05:27:36;12.00;99.90
14277;DHT22;7222;57.346;12.150;2023-06-05T05:30:03;12.10;99.90
14277;DHT22;7222;57.346;12.150;2023-06-05T05:32:30;12.10;99.90
14277;DHT22;7222;57.346;12.150;2023-06-05T05:34:57;12.30;99.90
14277;DHT22;7222;57.346;12.150;2023-06-05T05:37:24;12.40;99.90
14277;DHT22;7222;57.346;12.150;2023-06-05T05:39:53;12.40;99.90
14277;DHT22;7222;57.346;12.150;2023-06-05T05:42:19;12.50;99.90
14277;DHT22;7222;57.346;12.150;2023-06-05T05:44:46;12.60;99.90
14277;DHT22;7222;57.346;12.150;2023-06-05T05:47:13;11.90;99.90
14277;DHT22;7222;57.346;12.150;2023-06-05T05:49:40;12.20;99.90
14277;DHT22;7222;57.346;12.150;2023-06-05T05:52:08;13.10;99.90
14277;DHT22;7222;57.346;12.150;2023-06-05T05:54:35;13.50;99.90
14277;DHT22;7222;57.346;12.150;2023-06-05T05:57:04;13.40;99.90
14277;DHT22;7222;57.346;12.150;2023-06-05T05:59:32;13.40;99.90
14277;DHT22;7222;57.346;12.150;2023-06-05T06:01:59;13.40;99.90
14277;DHT22;7222;57.346;12.150;2023-06-05T06:04:27;13.90;99.90
14277;DHT22;7222;57.346;12.150;2023-06-05T06:06:54;14.10;99.90
14277;DHT22;7222;57.346;12.150;2023-06-05T06:09:22;14.20;99.90
14277;DHT22;7222;57.346;12.150;2023-06-05T06:11:50;14.20;99.90
14277;DHT22;7222;57.346;12.150;2023-06-05T06:14:22;14.40;99.90
14277;DHT22;7222;57.346;12.150;2023-06-05T06:16:49;14.60;99.90
14277;DHT22;7222;57.346;12.150;2023-06-05T06:19:17;14.90;99.90
14277;DHT22;7222;57.346;12.150;2023-06-05T06:21:48;15.00;99.90
14277;DHT22;7222;57.346;12.150;2023-06-05T06:24:16;14.80;99.90
14277;DHT22;7222;57.346;12.150;2023-06-05T06:26:45;15.00;99.90
14277;DHT22;7222;57.346;12.150;2023-06-05T06:29:14;14.90;99.90
14277;DHT22;7222;57.346;12.150;2023-06-05T06:31:43;15.30;99.90
14277;DHT22;7222;57.346;12.150;2023-06-05T06:34:10;15.60;99.90
14277;DHT22;7222;57.346;12.150;2023-06-05T06:36:37;15.40;99.90
14277;DHT22;7222;57.346;12.150;2023-06-05T06:39:06;15.40;99.90
14277;DHT22;7222;57.346;12.150;2023-06-05T06:41:33;15.60;99.90
14277;DHT22;7222;57.346;12.150;2023-06-05T06:44:01;15.80;99.90
14277;DHT22;7222;57.346;12.150;2023-06-05T06:46:31;16.00;99.90
14277;DHT22;7222;57.346;12.150;2023-06-05T06:49:00;15.90;99.90
14277;DHT22;7222;57.346;12.150;2023-06-05T06:51:27;15.80;99.90
14277;DHT22;7222;57.346;12.150;2023-06-05T06:53:55;16.20;99.90
14277;DHT22;7222;57.346;12.150;2023-06-05T06:56:22;16.10;99.90
14277;DHT22;7222;57.346;12.150;2023-06-05T06:58:52;16.20;99.90
14277;DHT22;7222;57.346;12.150;2023-06-05T07:01:19;15.80;99.90
14277;DHT22;7222;57.346;12.150;2023-06-05T07:03:47;16.10;99.90
14277;DHT22;7222;57.346;12.150;2023-06-05T07:06:16;16.60;99.90
14277;DHT22;7222;57.346;12.150;2023-06-05T07:08:42;17.10;99.90
14277;DHT22;7222;57.346;12.150;2023-06-05T07:11:10;17.40;99.90
14277;DHT22;7222;57.346;12.150;2023-06-05T07:13:37;17.50;99.90
14277;DHT22;7222;57.346;12.150;2023-06-05T07:16:04;17.70;99.90
14277;DHT22;7222;57.346;12.150;2023-06-05T07:18:32;17.80;99.90
14277;DHT22;7222;57.346;12.150;2023-06-05T07:20:59;18.10;1.00
14277;DHT22;7222;57.346;12.150;2023-06-05T07:23:28;18.20;99.90
14277;DHT22;7222;57.346;12.150;2023-06-05T07:25:55;18.70;1.00
14277;DHT22;7222;57.346;12.150;2023-06-05T07:28:22;18.50;99.90
14277;DHT22;7222;57.346;12.150;2023-06-05T07:30:50;18.40;99.90
14277;DHT22;7222;57.346;12.150;2023-06-05T07:33:17;19.40;1.00
14277;DHT22;7222;57.346;12.150;2023-06-05T07:35:46;19.70;1.00
14277;DHT22;7222;57.346;12.150;2023-06-05T07:38:14;19.70;1.00
14277;DHT22;7222;57.346;12.150;2023-06-05T07:40:42;18.90;99.90
14277;DHT22;7222;57.346;12.150;2023-06-05T07:43:09;19.40;1.00
14277;DHT22;7222;57.346;12.150;2023-06-05T07:45:40;20.10;99.90
14277;DHT22;7222;57.346;12.150;2023-06-05T07:48:07;19.50;1.00
14277;DHT22;7222;57.346;12.150;2023-06-05T07:50:34;20.10;99.90
14277;DHT22;7222;57.346;12.150;2023-06-05T07:53:01;20.00;99.90
14277;DHT22;7222;57.346;12.150;2023-06-05T07:55:28;19.90;81.70
14277;DHT22;7222;57.346;12.150;2023-06-05T07:57:56;18.50;99.90
14277;DHT22;7222;57.346;12.150;2023-06-05T08:00:25;19.20;49.00
14277;DHT22;7222;57.346;12.150;2023-06-05T08:02:52;19.10;99.90
14277;DHT22;7222;57.346;12.150;2023-06-05T08:05:19;18.90;91.90
14277;DHT22;7222;57.346;12.150;2023-06-05T08:07:46;19.00;1.00
14277;DHT22;7222;57.346;12.150;2023-06-05T08:10:13;18.40;99.90
14277;DHT22;7222;57.346;12.150;2023-06-05T08:12:40;18.70;1.00
14277;DHT22;7222;57.346;12.150;2023-06-05T08:15:10;19.10;97.60
14277;DHT22;7222;57.346;12.150;2023-06-05T08:17:37;18.30;99.90
14277;DHT22;7222;57.346;12.150;2023-06-05T08:20:05;19.20;99.90
14277;DHT22;7222;57.346;12.150;2023-06-05T08:22:33;18.80;99.90
14277;DHT22;7222;57.346;12.150;2023-06-05T08:24:59;19.70;99.90
14277;DHT22;7222;57.346;12.150;2023-06-05T08:27:26;19.60;1.00
14277;DHT22;7222;57.346;12.150;2023-06-05T08:29:53;20.20;99.90
14277;DHT22;7222;57.346;12.150;2023-06-05T08:32:21;20.40;99.90
14277;DHT22;7222;57.346;12.150;2023-06-05T08:34:48;20.00;1.00
14277;DHT22;7222;57.346;12.150;2023-06-05T08:37:15;19.50;1.00
14277;DHT22;7222;57.346;12.150;2023-06-05T08:39:42;18.60;99.90
14277;DHT22;7222;57.346;12.150;2023-06-05T08:42:09;17.90;1.00
14277;DHT22;7222;57.346;12.150;2023-06-05T08:44:37;18.90;99.90
14277;DHT22;7222;57.346;12.150;2023-06-05T08:47:05;20.40;99.90
14277;DHT22;7222;57.346;12.150;2023-06-05T08:49:37;19.20;99.90
14277;DHT22;7222;57.346;12.150;2023-06-05T08:52:08;19.80;1.00
14277;DHT22;7222;57.346;12.150;2023-06-05T08:54:38;18.90;1.00
14277;DHT22;7222;57.346;12.150;2023-06-05T08:57:07;18.20;1.00
14277;DHT22;7222;57.346;12.150;2023-06-05T08:59:34;18.10;1.00
14277;DHT22;7222;57.346;12.150;2023-06-05T09:02:01;18.10;99.90
14277;DHT22;7222;57.346;12.150;2023-06-05T09:04:28;19.30;1.00
14277;DHT22;7222;57.346;12.150;2023-06-05T09:06:58;18.70;99.90
14277;DHT22;7222;57.346;12.150;2023-06-05T09:09:26;17.80;1.00
14277;DHT22;7222;57.346;12.150;2023-06-05T09:12:02;17.50;99.90
14277;DHT22;7222;57.346;12.150;2023-06-05T09:14:29;18.80;15.90
14277;DHT22;7222;57.346;12.150;2023-06-05T09:16:58;18.30;99.90
14277;DHT22;7222;57.346;12.150;2023-06-05T09:19:35;18.20;1.00
14277;DHT22;7222;57.346;12.150;2023-06-05T09:22:06;20.40;1.00
14277;DHT22;7222;57.346;12.150;2023-06-05T09:24:34;22.60;99.90
14277;DHT22;7222;57.346;12.150;2023-06-05T09:27:03;21.60;99.90
14277;DHT22;7222;57.346;12.150;2023-06-05T09:29:32;20.40;1.00
14277;DHT22;7222;57.346;12.150;2023-06-05T09:32:00;19.60;1.00
14277;DHT22;7222;57.346;12.150;2023-06-05T09:34:29;19.60;1.00
14277;DHT22;7222;57.346;12.150;2023-06-05T09:36:57;20.20;1.00
14277;DHT22;7222;57.346;12.150;2023-06-05T09:39:26;21.40;1.00
14277;DHT22;7222;57.346;12.150;2023-06-05T09:41:55;22.10;1.00
14277;DHT22;7222;57.346;12.150;2023-06-05T09:44:22;22.70;99.90
14277;DHT22;7222;57.346;12.150;2023-06-05T09:46:51;21.00;99.90
14277;DHT22;7222;57.346;12.150;2023-06-05T09:49:20;20.40;1.00
14277;DHT22;7222;57.346;12.150;2023-06-05T09:51:47;20.60;99.90
14277;DHT22;7222;57.346;12.150;2023-06-05T09:54:14;20.40;99.90
14277;DHT22;7222;57.346;12.150;2023-06-05T09:56:47;20.00;99.90
14277;DHT22;7222;57.346;12.150;2023-06-05T09:59:19;20.50;1.00
14277;DHT22;7222;57.346;12.150;2023-06-05T10:01:50;20.60;99.90
14277;DHT22;7222;57.346;12.150;2023-06-05T10:04:20;21.00;99.90
14277;DHT22;7222;57.346;12.150;2023-06-05T10:06:50;19.60;70.10
14277;DHT22;7222;57.346;12.150;2023-06-05T10:09:17;19.80;99.90
14277;DHT22;7222;57.346;12.150;2023-06-05T10:11:48;20.60;99.90
14277;DHT22;7222;57.346;12.150;2023-06-05T10:14:16;21.00;1.00
14277;DHT22;7222;57.346;12.150;2023-06-05T10:16:45;21.10;93.40
14277;DHT22;7222;57.346;12.150;2023-06-05T10:19:15;22.20;1.00
14277;DHT22;7222;57.346;12.150;2023-06-05T10:21:44;23.80;1.00
14277;DHT22;7222;57.346;12.150;2023-06-05T10:24:15;22.80;1.00
14277;DHT22;7222;57.346;12.150;2023-06-05T10:27:26;22.10;1.00
14277;DHT22;7222;57.346;12.150;2023-06-05T10:30:19;20.70;1.00
14277;DHT22;7222;57.346;12.150;2023-06-05T10:33:01;19.90;99.90
14277;DHT22;7222;57.346;12.150;2023-06-05T10:35:44;21.20;1.00
14277;DHT22;7222;57.346;12.150;2023-06-05T10:38:17;19.70;1.00
14277;DHT22;7222;57.346;12.150;2023-06-05T10:40:46;19.40;1.00
14277;DHT22;7222;57.346;12.150;2023-06-05T10:43:30;20.00;1.00
14277;DHT22;7222;57.346;12.150;2023-06-05T10:45:59;22.50;1.00
14277;DHT22;7222;57.346;12.150;2023-06-05T10:51:39;23.40;99.90
14277;DHT22;7222;57.346;12.150;2023-06-05T10:54:09;24.10;99.90
14277;DHT22;7222;57.346;12.150;2023-06-05T10:56:59;24.10;1.00
14277;DHT22;7222;57.346;12.150;2023-06-05T10:59:29;23.10;1.00
14277;DHT22;7222;57.346;12.150;2023-06-05T11:02:25;22.20;1.00
14277;DHT22;7222;57.346;12.150;2023-06-05T11:05:08;22.70;99.90
14277;DHT22;7222;57.346;12.150;2023-06-05T11:07:41;21.50;99.90
14277;DHT22;7222;57.346;12.150;2023-06-05T11:10:15;22.50;1.00
14277;DHT22;7222;57.346;12.150;2023-06-05T11:13:00;22.60;1.00
14277;DHT22;7222;57.346;12.150;2023-06-05T11:15:36;20.00;99.90
14277;DHT22;7222;57.346;12.150;2023-06-05T11:18:32;22.00;99.90
14277;DHT22;7222;57.346;12.150;2023-06-05T11:20:59;22.80;99.90
14277;DHT22;7222;57.346;12.150;2023-06-05T11:23:27;22.80;1.00
14277;DHT22;7222;57.346;12.150;2023-06-05T11:28:53;21.50;87.40
14277;DHT22;7222;57.346;12.150;2023-06-05T11:31:29;20.20;71.00
14277;DHT22;7222;57.346;12.150;2023-06-05T11:33:58;20.70;1.00
14277;DHT22;7222;57.346;12.150;2023-06-05T11:36:25;19.20;99.90
14277;DHT22;7222;57.346;12.150;2023-06-05T11:38:53;19.70;1.00
14277;DHT22;7222;57.346;12.150;2023-06-05T11:41:21;21.10;61.20
14277;DHT22;7222;57.346;12.150;2023-06-05T11:43:50;22.10;99.90
14277;DHT22;7222;57.346;12.150;2023-06-05T11:46:17;21.10;12.40
14277;DHT22;7222;57.346;12.150;2023-06-05T11:48:45;22.40;99.90
14277;DHT22;7222;57.346;12.150;2023-06-05T11:51:13;21.40;99.90
14277;DHT22;7222;57.346;12.150;2023-06-05T11:53:45;22.10;99.90
14277;DHT22;7222;57.346;12.150;2023-06-05T11:56:14;20.40;99.90
14277;DHT22;7222;57.346;12.150;2023-06-05T11:58:42;20.30;1.00
14277;DHT22;7222;57.346;12.150;2023-06-05T12:01:11;23.00;99.90
14277;DHT22;7222;57.346;12.150;2023-06-05T12:03:40;21.90;99.90
14277;DHT22;7222;57.346;12.150;2023-06-05T12:06:09;22.10;1.00
14277;DHT22;7222;57.346;12.150;2023-06-05T12:08:37;21.80;1.00
14277;DHT22;7222;57.346;12.150;2023-06-05T12:11:20;23.00;1.00
14277;DHT22;7222;57.346;12.150;2023-06-05T12:13:48;24.60;1.00
14277;DHT22;7222;57.346;12.150;2023-06-05T12:16:16;24.20;99.90
14277;DHT22;7222;57.346;12.150;2023-06-05T12:18:43;24.10;1.00
14277;DHT22;7222;57.346;12.150;2023-06-05T12:21:21;24.80;1.00
14277;DHT22;7222;57.346;12.150;2023-06-05T12:23:59;22.90;1.00
14277;DHT22;7222;57.346;12.150;2023-06-05T12:26:27;23.00;99.90
14277;DHT22;7222;57.346;12.150;2023-06-05T12:29:03;25.50;99.90
14277;DHT22;7222;57.346;12.150;2023-06-05T12:31:35;26.30;99.90
14277;DHT22;7222;57.346;12.150;2023-06-05T12:34:04;27.30;1.00
14277;DHT22;7222;57.346;12.150;2023-06-05T12:36:38;27.50;1.00
14277;DHT22;7222;57.346;12.150;2023-06-05T12:39:05;26.90;1.00
14277;DHT22;7222;57.346;12.150;2023-06-05T12:41:32;25.50;1.00
14277;DHT22;7222;57.346;12.150;2023-06-05T12:44:00;27.10;1.00
14277;DHT22;7222;57.346;12.150;2023-06-05T12:46:30;28.40;1.00
14277;DHT22;7222;57.346;12.150;2023-06-05T12:48:57;29.80;1.00
14277;DHT22;7222;57.346;12.150;2023-06-05T12:51:24;29.50;1.00
14277;DHT22;7222;57.346;12.150;2023-06-05T12:53:53;28.30;1.00
14277;DHT22;7222;57.346;12.150;2023-06-05T12:56:20;28.10;1.00
14277;DHT22;7222;57.346;12.150;2023-06-05T12:58:51;27.30;1.00
14277;DHT22;7222;57.346;12.150;2023-06-05T13:01:18;27.30;1.00
14277;DHT22;7222;57.346;12.150;2023-06-05T13:03:45;29.10;1.00
14277;DHT22;7222;57.346;12.150;2023-06-05T13:06:12;28.00;1.00
14277;DHT22;7222;57.346;12.150;2023-06-05T13:08:39;28.80;1.00
14277;DHT22;7222;57.346;12.150;2023-06-05T13:11:07;27.00;1.00
14277;DHT22;7222;57.346;12.150;2023-06-05T13:13:36;25.70;1.00
14277;DHT22;7222;57.346;12.150;2023-06-05T13:16:03;23.50;1.00
14277;DHT22;7222;57.346;12.150;2023-06-05T13:18:32;24.70;99.90
14277;DHT22;7222;57.346;12.150;2023-06-05T13:21:00;26.10;1.00
14277;DHT22;7222;57.346;12.150;2023-06-05T13:23:27;27.40;1.00
14277;DHT22;7222;57.346;12.150;2023-06-05T13:25:54;26.90;1.00
14277;DHT22;7222;57.346;12.150;2023-06-05T13:28:23;23.80;1.00
14277;DHT22;7222;57.346;12.150;2023-06-05T13:30:50;24.40;1.00
14277;DHT22;7222;57.346;12.150;2023-06-05T13:33:18;25.50;20.40
14277;DHT22;7222;57.346;12.150;2023-06-05T13:35:46;26.40;1.00
14277;DHT22;7222;57.346;12.150;2023-06-05T13:38:13;24.50;99.90
14277;DHT22;7222;57.346;12.150;2023-06-05T13:40:40;24.70;1.00
14277;DHT22;7222;57.346;12.150;2023-06-05T13:43:12;24.90;13.00
14277;DHT22;7222;57.346;12.150;2023-06-05T13:45:41;26.80;1.00
14277;DHT22;7222;57.346;12.150;2023-06-05T13:48:08;28.30;1.00
14277;DHT22;7222;57.346;12.150;2023-06-05T13:50:35;24.80;1.00
14277;DHT22;7222;57.346;12.150;2023-06-05T13:53:02;25.30;1.00
14277;DHT22;7222;57.346;12.150;2023-06-05T13:55:29;28.10;1.00
14277;DHT22;7222;57.346;12.150;2023-06-05T13:57:56;26.80;1.00
14277;DHT22;7222;57.346;12.150;2023-06-05T14:00:26;27.30;1.00
14277;DHT22;7222;57.346;12.150;2023-06-05T14:02:55;26.30;1.00
14277;DHT22;7222;57.346;12.150;2023-06-05T14:05:21;26.00;1.00
14277;DHT22;7222;57.346;12.150;2023-06-05T14:07:49;25.70;1.00
14277;DHT22;7222;57.346;12.150;2023-06-05T14:10:19;25.60;1.00
14277;DHT22;7222;57.346;12.150;2023-06-05T14:12:46;26.50;1.00
14277;DHT22;7222;57.346;12.150;2023-06-05T14:15:13;23.40;1.00
14277;DHT22;7222;57.346;12.150;2023-06-05T14:17:39;24.20;99.90
14277;DHT22;7222;57.346;12.150;2023-06-05T14:20:10;22.40;99.90
14277;DHT22;7222;57.346;12.150;2023-06-05T14:22:37;24.90;99.90
14277;DHT22;7222;57.346;12.150;2023-06-05T14:25:05;27.40;1.00
14277;DHT22;7222;57.346;12.150;2023-06-05T14:27:32;27.70;1.00
14277;DHT22;7222;57.346;12.150;2023-06-05T14:29:59;28.80;1.00
14277;DHT22;7222;57.346;12.150;2023-06-05T14:32:26;26.10;1.00
14277;DHT22;7222;57.346;12.150;2023-06-05T14:34:52;25.90;1.00
14277;DHT22;7222;57.346;12.150;2023-06-05T14:37:21;24.60;1.00
14277;DHT22;7222;57.346;12.150;2023-06-05T14:39:47;25.30;1.00
14277;DHT22;7222;57.346;12.150;2023-06-05T14:42:16;22.70;99.90
14277;DHT22;7222;57.346;12.150;2023-06-05T14:44:43;24.50;1.00
14277;DHT22;7222;57.346;12.150;2023-06-05T14:47:10;25.50;1.00
14277;DHT22;7222;57.346;12.150;2023-06-05T14:49:37;23.60;6.70
14277;DHT22;7222;57.346;12.150;2023-06-05T14:52:04;25.10;99.90
14277;DHT22;7222;57.346;12.150;2023-06-05T14:54:33;24.40;1.00
14277;DHT22;7222;57.346;12.150;2023-06-05T14:57:00;27.30;1.00
14277;DHT22;7222;57.346;12.150;2023-06-05T14:59:26;27.50;1.00
14277;DHT22;7222;57.346;12.150;2023-06-05T15:01:53;27.60;1.00
14277;DHT22;7222;57.346;12.150;2023-06-05T15:04:20;28.50;1.00
14277;DHT22;7222;57.346;12.150;2023-06-05T15:06:47;27.80;1.00
14277;DHT22;7222;57.346;12.150;2023-06-05T15:09:16;26.90;1.00
14277;DHT22;7222;57.346;12.150;2023-06-05T15:11:44;27.60;1.00
14277;DHT22;7222;57.346;12.150;2023-06-05T15:14:11;27.30;1.00
14277;DHT22;7222;57.346;12.150;2023-06-05T15:16:38;27.10;1.00
14277;DHT22;7222;57.346;12.150;2023-06-05T15:19:05;27.80;1.00
14277;DHT22;7222;57.346;12.150;2023-06-05T15:21:32;27.50;1.00
14277;DHT22;7222;57.346;12.150;2023-06-05T15:23:59;27.30;1.00
14277;DHT22;7222;57.346;12.150;2023-06-05T15:26:26;26.30;1.00
14277;DHT22;7222;57.346;12.150;2023-06-05T15:28:54;26.80;1.00
14277;DHT22;7222;57.346;12.150;2023-06-05T15:31:21;25.60;1.00
14277;DHT22;7222;57.346;12.150;2023-06-05T15:33:48;25.10;1.00
14277;DHT22;7222;57.346;12.150;2023-06-05T15:36:15;26.80;1.00
14277;DHT22;7222;57.346;12.150;2023-06-05T15:38:42;26.30;1.00
14277;DHT22;7222;57.346;12.150;2023-06-05T15:41:09;25.20;1.00
14277;DHT22;7222;57.346;12.150;2023-06-05T15:43:37;25.50;1.00
14277;DHT22;7222;57.346;12.150;2023-06-05T15:46:05;26.60;1.00
14277;DHT22;7222;57.346;12.150;2023-06-05T15:48:34;27.20;1.00
14277;DHT22;7222;57.346;12.150;2023-06-05T15:51:00;27.50;1.00
14277;DHT22;7222;57.346;12.150;2023-06-05T15:53:27;26.50;1.00
14277;DHT22;7222;57.346;12.150;2023-06-05T15:55:54;26.20;1.00
14277;DHT22;7222;57.346;12.150;2023-06-05T15:58:21;26.60;1.00